CheckWX is a tool to help pilots better visualize weather data.  It is not intended as a substitute for an official pre-flight weather briefing.

18:33:30 UTC

KLAN TAF
Capital Region International Airport
Lansing, Michigan, USA
KLAN 171740Z 1718/1818 31010KT P6SM OVC035 FM180000 VRB03KT P6SM SCT035 FM181200 00000KT P6SM FEW250

Oct-17@
18:00 UTC

Oct-17 @ 18:00 UTC

Oct-18@
00:00 UTC

Oct-18 @ 00:00 UTC

KLAN 171740Z 1718/1818 31010KT P6SM OVC035
Wind
  • 310° at 10 KTS
Cloud Levels
  • Overcast at 3,500' AGL

Oct-18@
00:00 UTC

Oct-18 @ 00:00 UTC

Oct-18@
12:00 UTC

Oct-18 @ 12:00 UTC

FM180000 VRB03KT P6SM SCT035

From

From Standard forecast or significant change

Wind
  • Variable at 3 KTS
Cloud Levels
  • Scattered at 3,500' AGL

Oct-18@
12:00 UTC

Oct-18 @ 12:00 UTC

Oct-18@
18:00 UTC

Oct-18 @ 18:00 UTC

FM181200 00000KT P6SM FEW250

From

From Standard forecast or significant change

Cloud Levels
  • Few at 25,000' AGL